Time;durP1;ratioP1;P1;durP2;ratioP2;P2;SDS_P1;SDS_P2;PMS_P1;PMS_P2;Temp;Humidity;BMP_temperature;BMP_pressure;BME280_temperature;BME280_humidity;BME280_pressure;Samples;Min_cycle;Max_cycle;Signal;HPM_P1;HPM_P2
2023/04/01 00:02:26;;;;;;;2.35;1.10;;;16.50;85.80;;;;;;5016724;28;20202;-64
2023/04/01 00:05:16;;;;;;;1.25;1.15;;;16.50;85.90;;;;;;5016767;28;20210;-64
2023/04/01 00:08:04;;;;;;;1.10;1.00;;;16.50;85.70;;;;;;5016094;28;20236;-65
2023/04/01 00:10:53;;;;;;;1.27;1.17;;;16.50;85.70;;;;;;5016845;28;20234;-65
2023/04/01 00:13:41;;;;;;;1.38;1.27;;;16.50;85.80;;;;;;5015296;28;20690;-65
2023/04/01 00:16:31;;;;;;;0.90;0.90;;;16.50;85.80;;;;;;5015892;28;20198;-66
2023/04/01 00:19:19;;;;;;;1.30;1.10;;;16.50;85.80;;;;;;5016367;28;20217;-66
2023/04/01 00:22:11;;;;;;;1.88;1.20;;;16.50;85.70;;;;;;5015581;28;20578;-65
2023/04/01 00:24:59;;;;;;;1.15;0.80;;;16.50;85.70;;;;;;5016092;28;20210;-66
2023/04/01 00:27:47;;;;;;;1.60;1.48;;;16.50;85.80;;;;;;5015263;28;20681;-64
2023/04/01 00:30:36;;;;;;;1.20;1.10;;;16.50;85.80;;;;;;5016372;28;20231;-64
2023/04/01 00:33:27;;;;;;;1.20;1.05;;;16.50;85.90;;;;;;5016420;28;20253;-64
2023/04/01 00:36:17;;;;;;;1.27;1.00;;;16.50;86.00;;;;;;5015155;28;20592;-65
2023/04/01 00:39:05;;;;;;;1.30;1.10;;;16.40;94.70;;;;;;5015733;28;20295;-66
2023/04/01 00:41:54;;;;;;;1.10;1.00;;;16.50;86.20;;;;;;5015619;28;20263;-65
2023/04/01 00:44:43;;;;;;;1.10;1.00;;;16.50;86.20;;;;;;5015993;28;20281;-66
2023/04/01 00:47:31;;;;;;;1.20;1.10;;;16.50;86.30;;;;;;5014339;28;20341;-64
2023/04/01 00:50:23;;;;;;;1.10;1.10;;;16.50;86.10;;;;;;5014932;28;20295;-64
2023/04/01 00:53:12;;;;;;;1.20;1.10;;;16.50;86.20;;;;;;5014587;28;20203;-65
2023/04/01 00:56:05;;;;;;;1.48;1.05;;;16.50;86.30;;;;;;5016070;28;20280;-65
2023/04/01 00:58:59;;;;;;;2.17;1.30;;;16.50;86.40;;;;;;5035566;28;20260;-65
2023/04/01 01:01:48;;;;;;;2.35;1.10;;;16.50;86.30;;;;;;5035437;28;20205;-65
2023/04/01 01:04:36;;;;;;;1.08;0.98;;;16.50;86.20;;;;;;5031413;28;20212;-65
2023/04/01 01:07:31;;;;;;;3.58;0.93;;;16.50;86.10;;;;;;5034108;28;20292;-66
2023/04/01 01:10:24;;;;;;;1.25;1.00;;;16.50;86.20;;;;;;5033574;28;20709;-65
2023/04/01 01:13:18;;;;;;;1.13;1.08;;;16.50;86.20;;;;;;5034914;28;20628;-65
2023/04/01 01:16:17;;;;;;;0.93;0.93;;;16.50;86.10;;;;;;5034722;28;20202;-64
2023/04/01 01:19:21;;;;;;;1.00;0.90;;;16.30;94.50;;;;;;5033865;28;20198;-65
2023/04/01 01:22:25;;;;;;;1.13;0.90;;;16.50;86.30;;;;;;5034337;28;20202;-65
2023/04/01 01:25:32;;;;;;;1.98;1.17;;;16.40;86.10;;;;;;5033092;28;20629;-65
2023/04/01 01:28:33;;;;;;;1.20;1.10;;;16.40;86.20;;;;;;5033184;28;20226;-66
2023/04/01 01:31:29;;;;;;;1.00;0.90;;;16.50;86.40;;;;;;5033277;28;20281;-67
2023/04/01 01:34:24;;;;;;;1.23;1.02;;;16.50;86.40;;;;;;5033584;28;20206;-64
2023/04/01 01:37:16;;;;;;;0.90;0.90;;;16.40;86.40;;;;;;5034149;28;20466;-64
2023/04/01 01:40:07;;;;;;;1.60;0.90;;;16.50;86.40;;;;;;5033619;28;20312;-65
2023/04/01 01:43:00;;;;;;;1.33;1.23;;;16.50;86.60;;;;;;5032222;28;20240;-65
2023/04/01 01:45:51;;;;;;;1.10;1.00;;;16.50;86.60;;;;;;5033614;28;20206;-66
2023/04/01 01:48:42;;;;;;;1.23;0.93;;;16.50;86.40;;;;;;5033595;28;20588;-64
2023/04/01 01:51:30;;;;;;;2.25;1.10;;;16.50;86.50;;;;;;5032369;28;20225;-65
2023/04/01 01:54:19;;;;;;;1.23;1.10;;;16.50;86.50;;;;;;5033680;28;20277;-64
2023/04/01 01:57:11;;;;;;;0.80;0.80;;;16.50;86.40;;;;;;5028538;28;20329;-65
2023/04/01 02:00:03;;;;;;;2.22;1.30;;;16.40;86.30;;;;;;5015103;28;20611;-65
2023/04/01 02:02:51;;;;;;;0.90;0.90;;;16.50;86.50;;;;;;5013928;28;20235;-65
2023/04/01 02:05:41;;;;;;;0.80;0.80;;;16.50;86.30;;;;;;5013659;28;20207;-66
2023/04/01 02:08:32;;;;;;;2.05;0.90;;;16.50;86.40;;;;;;5015485;28;20241;-64
2023/04/01 02:11:28;;;;;;;2.63;1.00;;;16.50;86.60;;;;;;5013294;28;20699;-65
2023/04/01 02:14:18;;;;;;;1.83;0.80;;;16.50;86.40;;;;;;5013142;28;20231;-64
2023/04/01 02:17:09;;;;;;;2.15;0.82;;;16.40;86.30;;;;;;5015263;28;20198;-65
2023/04/01 02:20:00;;;;;;;1.23;1.13;;;16.40;86.20;;;;;;5015350;28;20298;-65
2023/04/01 02:22:50;;;;;;;1.80;1.30;;;16.50;86.50;;;;;;5014397;28;20285;-65
2023/04/01 02:25:40;;;;;;;1.10;1.10;;;16.50;86.50;;;;;;5013063;28;20715;-64
2023/04/01 02:28:31;;;;;;;1.17;0.90;;;16.50;86.40;;;;;;5013283;28;20235;-65
2023/04/01 02:31:19;;;;;;;1.47;0.80;;;16.50;86.40;;;;;;5014843;28;20302;-65
2023/04/01 02:34:08;;;;;;;2.00;1.03;;;16.50;86.50;;;;;;5015328;28;20207;-64
2023/04/01 02:36:57;;;;;;;1.00;1.00;;;16.40;86.40;;;;;;5015421;28;20234;-66
2023/04/01 02:39:45;;;;;;;0.90;0.80;;;16.50;86.40;;;;;;5014518;28;20223;-65
2023/04/01 02:42:34;;;;;;;2.45;1.13;;;16.50;86.50;;;;;;5016498;28;20288;-64
2023/04/01 02:45:23;;;;;;;1.00;0.90;;;16.50;86.50;;;;;;5016483;28;20234;-65
2023/04/01 02:48:12;;;;;;;1.27;1.10;;;16.40;86.50;;;;;;5018731;28;20210;-64
2023/04/01 02:51:00;;;;;;;2.28;0.90;;;16.40;86.50;;;;;;5018116;28;20271;-64
2023/04/01 02:53:48;;;;;;;1.70;0.90;;;16.50;86.40;;;;;;5016865;28;20253;-66
2023/04/01 02:56:36;;;;;;;2.50;1.00;;;16.40;86.30;;;;;;5017549;28;20229;-65
2023/04/01 02:59:25;;;;;;;1.73;1.10;;;16.40;86.40;;;;;;5037566;28;20230;-65
2023/04/01 03:02:14;;;;;;;1.67;1.20;;;16.50;86.70;;;;;;5037366;28;20663;-66
2023/04/01 03:05:02;;;;;;;0.80;0.80;;;16.40;86.60;;;;;;5016217;28;20615;-65
2023/04/01 03:07:51;;;;;;;3.05;1.10;;;16.50;86.60;;;;;;5016498;28;20284;-64
2023/04/01 03:10:39;;;;;;;2.70;1.37;;;16.50;86.80;;;;;;5014887;28;20301;-65
2023/04/01 03:13:27;;;;;;;1.90;0.80;;;16.50;86.80;;;;;;5018025;28;20243;-69
2023/04/01 03:16:15;;;;;;;1.30;0.97;;;16.50;86.90;;;;;;5017322;28;20205;-64
2023/04/01 03:19:05;;;;;;;1.67;1.00;;;16.30;94.60;;;;;;5016295;28;20199;-66
2023/04/01 03:21:53;;;;;;;2.03;0.90;;;16.50;86.90;;;;;;5017007;28;20662;-63
2023/04/01 03:24:41;;;;;;;1.53;0.93;;;16.40;86.80;;;;;;5017644;28;20329;-64
2023/04/01 03:27:29;;;;;;;1.30;0.90;;;16.40;86.80;;;;;;5016979;28;20245;-66
2023/04/01 03:30:17;;;;;;;1.40;0.88;;;16.40;86.80;;;;;;5016784;28;20250;-65
2023/04/01 03:33:05;;;;;;;1.10;0.90;;;16.50;87.00;;;;;;5016542;28;20209;-65
2023/04/01 03:35:55;;;;;;;3.38;1.00;;;16.40;86.90;;;;;;5017465;28;20225;-65
2023/04/01 03:38:44;;;;;;;1.13;0.90;;;16.50;87.00;;;;;;5016693;28;20228;-65
2023/04/01 03:41:33;;;;;;;1.20;0.90;;;16.50;87.00;;;;;;5016468;28;20269;-64
2023/04/01 03:44:21;;;;;;;1.17;1.08;;;16.40;86.80;;;;;;5016119;28;20255;-65
2023/04/01 03:47:09;;;;;;;3.47;0.90;;;16.40;86.70;;;;;;5017315;28;20628;-65
2023/04/01 03:49:57;;;;;;;1.20;0.90;;;16.40;86.70;;;;;;5017525;28;20238;-64
2023/04/01 03:52:47;;;;;;;1.15;1.02;;;16.40;86.80;;;;;;5016199;28;20285;-64
2023/04/01 03:55:37;;;;;;;1.00;0.73;;;16.40;86.60;;;;;;5015722;28;20626;-65
2023/04/01 03:58:25;;;;;;;3.35;1.10;;;16.40;86.70;;;;;;5033352;28;20261;-64
2023/04/01 04:01:18;;;;;;;2.23;0.93;;;16.40;86.20;;;;;;5082907;22;20711;-65
2023/04/01 04:04:06;;;;;;;2.65;1.40;;;16.40;86.70;;;;;;5093062;28;20228;-64
2023/04/01 04:06:54;;;;;;;1.00;0.90;;;16.40;86.80;;;;;;5093643;28;20206;-65
2023/04/01 04:09:44;;;;;;;1.30;0.98;;;16.40;86.70;;;;;;5092848;28;20718;-65
2023/04/01 04:12:32;;;;;;;1.33;1.02;;;16.40;86.80;;;;;;5093383;28;20269;-65
2023/04/01 04:15:20;;;;;;;2.47;1.10;;;16.40;86.80;;;;;;5092419;28;20556;-65
2023/04/01 04:18:08;;;;;;;2.20;1.00;;;16.40;86.80;;;;;;5091874;28;20623;-65
2023/04/01 04:20:57;;;;;;;1.98;0.90;;;16.40;86.80;;;;;;5092027;28;20258;-65
2023/04/01 04:23:45;;;;;;;1.00;0.93;;;16.40;86.80;;;;;;5091854;28;20253;-65
2023/04/01 04:26:34;;;;;;;1.92;0.80;;;16.40;86.90;;;;;;5091909;28;20283;-65
2023/04/01 04:29:23;;;;;;;1.92;0.88;;;16.40;86.90;;;;;;5092702;28;20226;-65
2023/04/01 04:32:11;;;;;;;1.30;1.20;;;16.40;86.90;;;;;;5091737;28;20362;-64
2023/04/01 04:34:59;;;;;;;2.78;1.10;;;16.40;87.10;;;;;;5091412;28;20781;-67
2023/04/01 04:37:47;;;;;;;1.80;1.20;;;16.40;87.20;;;;;;5091658;28;20691;-65
2023/04/01 04:40:37;;;;;;;0.70;0.70;;;16.40;87.00;;;;;;5091495;28;20306;-65
2023/04/01 04:43:26;;;;;;;1.35;1.10;;;16.40;87.00;;;;;;5091005;28;20329;-65
2023/04/01 04:46:14;;;;;;;4.72;1.25;;;16.40;87.00;;;;;;5091153;28;20204;-65
2023/04/01 04:49:02;;;;;;;1.77;0.90;;;16.40;87.00;;;;;;5091876;28;20688;-64
2023/04/01 04:51:50;;;;;;;0.70;0.70;;;16.40;87.00;;;;;;5091204;28;20644;-65
2023/04/01 04:54:38;;;;;;;1.05;0.85;;;16.40;87.00;;;;;;5091596;28;20279;-64
2023/04/01 04:57:26;;;;;;;1.52;0.90;;;16.40;87.10;;;;;;5091481;28;20286;-64
2023/04/01 05:00:17;;;;;;;1.65;0.77;;;16.40;92.80;;;;;;5092089;28;20195;-65
2023/04/01 05:03:05;;;;;;;3.63;1.15;;;16.40;87.00;;;;;;5091319;28;20249;-64
2023/04/01 05:05:55;;;;;;;1.85;0.80;;;16.50;87.20;;;;;;5092805;28;20207;-65
2023/04/01 05:08:44;;;;;;;1.38;1.02;;;16.40;87.00;;;;;;5091798;28;20302;-65
2023/04/01 05:11:32;;;;;;;2.08;1.20;;;16.40;87.20;;;;;;5090821;28;20251;-65
2023/04/01 05:14:20;;;;;;;2.35;0.90;;;16.50;87.30;;;;;;5090712;28;20243;-65
2023/04/01 05:17:11;;;;;;;1.30;0.90;;;16.40;87.00;;;;;;5093015;28;20583;-64
2023/04/01 05:19:59;;;;;;;2.05;1.00;;;16.40;87.00;;;;;;5092853;28;20297;-64
2023/04/01 05:22:47;;;;;;;1.05;0.93;;;16.40;87.10;;;;;;5090761;28;20199;-64
2023/04/01 05:25:38;;;;;;;2.15;0.80;;;16.40;87.20;;;;;;5091943;28;20204;-65
2023/04/01 05:28:26;;;;;;;1.23;0.80;;;16.40;87.20;;;;;;5091263;28;20283;-65
2023/04/01 05:31:14;;;;;;;2.58;1.08;;;16.40;87.20;;;;;;5091438;28;20341;-65
2023/04/01 05:34:04;;;;;;;1.52;0.90;;;16.40;87.40;;;;;;5091154;28;20283;-65
2023/04/01 05:36:52;;;;;;;1.58;0.95;;;16.40;87.40;;;;;;5091665;28;20199;-64
2023/04/01 05:39:41;;;;;;;1.55;0.93;;;16.40;87.50;;;;;;5091646;28;20235;-65
2023/04/01 05:42:29;;;;;;;2.17;1.00;;;16.40;87.50;;;;;;5091930;28;20290;-65
2023/04/01 05:45:17;;;;;;;1.35;0.90;;;16.40;87.60;;;;;;5091662;28;20283;-65
2023/04/01 05:48:06;;;;;;;1.20;1.00;;;16.40;87.50;;;;;;5091104;28;20333;-65
2023/04/01 05:50:55;;;;;;;1.67;1.05;;;16.40;87.50;;;;;;5090988;28;20227;-64
2023/04/01 05:53:43;;;;;;;3.47;1.10;;;16.40;87.80;;;;;;5090782;28;20773;-65
2023/04/01 05:56:31;;;;;;;5.35;1.48;;;16.40;87.50;;;;;;5090850;28;20278;-65
2023/04/01 05:59:20;;;;;;;1.23;0.90;;;16.40;87.50;;;;;;5090308;28;20200;-65
2023/04/01 06:02:09;;;;;;;1.35;1.20;;;16.50;87.70;;;;;;5089627;28;20232;-65
2023/04/01 06:05:10;;;;;;;1.52;1.00;;;16.50;87.70;;;;;;5090312;28;20279;-65
2023/04/01 06:08:05;;;;;;;1.42;0.95;;;16.50;88.00;;;;;;5092239;28;20674;-65
2023/04/01 06:11:05;;;;;;;1.60;1.10;;;16.50;87.90;;;;;;5090060;28;20311;-65
2023/04/01 06:14:08;;;;;;;1.65;1.10;;;16.50;87.90;;;;;;5090463;28;20263;-64
2023/04/01 06:17:06;;;;;;;1.10;0.90;;;16.50;87.80;;;;;;5094165;28;20325;-65
2023/04/01 06:20:01;;;;;;;2.17;1.20;;;16.50;87.90;;;;;;5094339;28;20703;-65
2023/04/01 06:23:10;;;;;;;1.17;0.90;;;16.50;87.90;;;;;;5094577;28;20691;-65
2023/04/01 06:26:20;;;;;;;1.63;0.90;;;16.50;87.80;;;;;;5096160;28;20200;-65
2023/04/01 06:29:33;;;;;;;1.42;1.10;;;16.50;87.70;;;;;;5094299;28;20227;-65
2023/04/01 06:32:42;;;;;;;1.48;0.90;;;16.50;88.50;;;;;;5094123;28;20314;-65
2023/04/01 06:35:47;;;;;;;1.92;1.00;;;16.50;87.70;;;;;;5094152;28;20199;-64
2023/04/01 06:39:12;;;;;;;1.37;1.00;;;16.50;87.80;;;;;;5095383;28;20282;-64
2023/04/01 06:42:16;;;;;;;1.80;1.00;;;16.50;87.70;;;;;;5093884;28;20299;-65
2023/04/01 06:45:14;;;;;;;3.40;1.08;;;16.50;87.50;;;;;;5093970;28;20237;-65
2023/04/01 06:48:20;;;;;;;1.10;0.83;;;16.50;87.60;;;;;;5093533;28;20221;-65
2023/04/01 06:51:19;;;;;;;0.93;0.80;;;16.50;87.60;;;;;;5093989;28;20219;-64
2023/04/01 06:54:13;;;;;;;0.80;0.77;;;16.50;87.50;;;;;;5094145;28;20215;-65
2023/04/01 06:57:06;;;;;;;1.53;0.90;;;16.50;87.60;;;;;;5093582;28;20200;-65
2023/04/01 06:59:56;;;;;;;0.90;0.88;;;16.50;87.60;;;;;;5094734;28;20696;-64
2023/04/01 07:02:53;;;;;;;1.13;0.97;;;16.50;87.50;;;;;;5094355;28;20196;-65
2023/04/01 07:05:43;;;;;;;1.60;1.30;;;16.50;87.70;;;;;;5094436;28;20211;-64
2023/04/01 07:08:37;;;;;;;2.03;1.10;;;16.50;87.60;;;;;;5095842;28;20206;-65
2023/04/01 07:11:30;;;;;;;1.55;1.00;;;16.50;87.70;;;;;;5099030;28;20802;-65
2023/04/01 07:14:22;;;;;;;2.53;1.20;;;16.50;87.70;;;;;;5080351;28;20306;-65
2023/04/01 07:17:16;;;;;;;2.03;1.27;;;16.50;87.80;;;;;;5075418;28;20228;-65
2023/04/01 07:20:14;;;;;;;1.65;1.08;;;16.50;87.70;;;;;;5075927;28;20201;-65
2023/04/01 07:23:06;;;;;;;1.25;0.80;;;16.50;87.70;;;;;;5074434;28;20326;-65
2023/04/01 07:25:59;;;;;;;1.02;0.95;;;16.60;87.90;;;;;;5074037;28;20201;-65
2023/04/01 07:28:49;;;;;;;2.63;0.93;;;16.50;87.70;;;;;;5074807;28;20732;-65
2023/04/01 07:32:19;;;;;;;3.80;1.27;;;16.50;88.40;;;;;;5074680;28;20270;-64
2023/04/01 07:35:18;;;;;;;1.35;0.88;;;16.60;87.60;;;;;;5073802;28;20200;-65
2023/04/01 07:38:17;;;;;;;1.00;0.70;;;16.60;87.80;;;;;;5074959;28;20651;-65
2023/04/01 07:41:12;;;;;;;2.20;1.27;;;16.60;87.70;;;;;;5073828;28;20224;-65
2023/04/01 07:44:15;;;;;;;1.30;1.20;;;16.60;87.70;;;;;;5075226;28;20272;-65
2023/04/01 07:47:28;;;;;;;0.83;0.83;;;16.60;87.90;;;;;;5074711;28;20257;-65
2023/04/01 07:50:26;;;;;;;1.57;1.20;;;16.50;94.10;;;;;;5074075;28;20197;-65
2023/04/01 07:53:20;;;;;;;0.90;0.90;;;16.60;87.90;;;;;;5074617;28;20274;-64
2023/04/01 07:56:11;;;;;;;0.85;0.70;;;16.60;88.10;;;;;;5074706;28;20313;-64
2023/04/01 07:59:06;;;;;;;3.10;1.17;;;16.60;88.00;;;;;;5073891;28;20254;-64
2023/04/01 08:02:03;;;;;;;1.10;0.88;;;16.60;87.90;;;;;;5072697;28;20370;-65
2023/04/01 08:05:01;;;;;;;1.08;0.98;;;16.70;88.00;;;;;;5072894;28;20713;-64
2023/04/01 08:07:58;;;;;;;1.05;0.80;;;16.70;87.90;;;;;;5072440;28;20286;-65
2023/04/01 08:10:52;;;;;;;1.50;0.70;;;16.70;87.80;;;;;;5073471;28;20766;-65
2023/04/01 08:13:47;;;;;;;1.00;0.90;;;16.70;87.90;;;;;;5072609;28;20254;-65
2023/04/01 08:16:44;;;;;;;1.37;0.80;;;16.60;87.70;;;;;;5072619;28;20255;-65
2023/04/01 08:19:51;;;;;;;3.78;0.90;;;16.70;87.80;;;;;;5072348;28;20254;-64
2023/04/01 08:22:43;;;;;;;2.00;0.80;;;16.70;88.00;;;;;;5072857;28;20677;-64
2023/04/01 08:25:33;;;;;;;2.25;1.08;;;16.70;87.70;;;;;;5072326;28;20254;-64
2023/04/01 08:28:26;;;;;;;1.77;1.33;;;16.70;87.70;;;;;;5072459;28;20215;-64
2023/04/01 08:31:20;;;;;;;1.40;0.70;;;16.70;87.50;;;;;;5072720;28;20657;-64
2023/04/01 08:34:18;;;;;;;2.55;1.00;;;16.70;87.80;;;;;;5071685;28;20334;-64
2023/04/01 08:37:10;;;;;;;1.13;0.90;;;16.70;87.40;;;;;;5071681;28;20208;-65
2023/04/01 08:40:02;;;;;;;2.10;0.90;;;16.70;87.00;;;;;;5072473;28;20201;-64
2023/04/01 08:43:08;;;;;;;1.23;0.85;;;16.70;87.30;;;;;;5071155;28;20275;-65
2023/04/01 08:46:27;;;;;;;1.48;1.10;;;16.70;87.80;;;;;;5071492;28;20269;-64
2023/04/01 08:49:44;;;;;;;1.38;1.13;;;16.70;87.80;;;;;;5071219;28;20276;-64
2023/04/01 08:52:36;;;;;;;0.95;0.90;;;16.70;87.30;;;;;;5071605;28;20305;-65
2023/04/01 08:55:36;;;;;;;1.70;0.70;;;16.80;87.40;;;;;;5071116;28;20197;-65
2023/04/01 08:58:43;;;;;;;0.93;0.80;;;16.80;87.30;;;;;;5088317;28;20730;-64
2023/04/01 09:01:47;;;;;;;1.37;1.27;;;16.70;87.00;;;;;;5091416;28;20306;-64
2023/04/01 09:04:59;;;;;;;0.85;0.80;;;16.80;87.30;;;;;;5092134;28;20332;-65
2023/04/01 09:08:03;;;;;;;2.45;0.90;;;16.80;87.20;;;;;;5092103;28;20196;-65
2023/04/01 09:11:04;;;;;;;1.25;1.15;;;16.80;87.40;;;;;;5092345;28;20718;-65
2023/04/01 09:14:12;;;;;;;3.85;0.88;;;16.80;87.60;;;;;;5091645;28;20215;-64
2023/04/01 09:17:22;;;;;;;2.17;1.00;;;16.80;87.50;;;;;;5092135;28;20200;-65
2023/04/01 09:20:31;;;;;;;0.98;0.80;;;16.50;95.20;;;;;;5091544;28;20200;-64
2023/04/01 09:23:38;;;;;;;1.92;1.00;;;16.80;87.70;;;;;;5092050;28;20556;-64
2023/04/01 09:26:43;;;;;;;1.33;0.90;;;16.80;88.00;;;;;;5091573;28;20619;-64
2023/04/01 09:30:02;;;;;;;1.00;1.00;;;16.70;87.90;;;;;;5091771;28;20275;-64
2023/04/01 09:33:26;;;;;;;1.80;0.90;;;16.70;88.40;;;;;;5090893;28;20238;-64
2023/04/01 09:36:27;;;;;;;0.70;0.70;;;16.70;88.30;;;;;;5092081;28;20279;-64
2023/04/01 09:39:34;;;;;;;0.80;0.75;;;16.70;88.70;;;;;;5092381;28;20210;-64
2023/04/01 09:42:44;;;;;;;1.38;0.80;;;16.70;89.00;;;;;;5091387;28;20770;-64
2023/04/01 09:45:44;;;;;;;2.05;0.90;;;16.70;89.30;;;;;;5091694;28;20228;-64
2023/04/01 09:49:06;;;;;;;1.63;0.88;;;16.70;89.40;;;;;;5092754;28;20330;-64
2023/04/01 09:52:12;;;;;;;2.85;0.90;;;16.70;89.30;;;;;;5064212;28;20228;-64
2023/04/01 09:55:25;;;;;;;3.15;0.90;;;16.70;89.30;;;;;;5091597;28;20333;-64
2023/04/01 09:59:03;;;;;;;1.20;1.00;;;17.80;90.10;;;;;;5091270;28;20206;-64
2023/04/01 10:02:36;;;;;;;1.08;0.75;;;16.70;89.50;;;;;;5028741;28;20320;-63
2023/04/01 10:05:52;;;;;;;2.63;1.05;;;16.70;89.40;;;;;;5039970;28;20288;-65
2023/04/01 10:09:10;;;;;;;0.93;0.93;;;16.70;89.60;;;;;;5095118;28;20249;-64
2023/04/01 10:12:28;;;;;;;2.38;0.90;;;16.70;89.60;;;;;;5089967;28;20260;-64
2023/04/01 10:15:33;;;;;;;1.73;1.00;;;16.70;89.50;;;;;;5090660;28;20223;-65
2023/04/01 10:18:44;;;;;;;1.47;0.90;;;16.70;89.60;;;;;;5091046;28;20581;-65
2023/04/01 10:21:55;;;;;;;2.20;1.00;;;16.70;89.40;;;;;;5089928;28;20583;-65
2023/04/01 10:25:17;;;;;;;1.23;0.90;;;16.70;89.40;;;;;;5089800;28;20223;-65
2023/04/01 10:28:52;;;;;;;1.05;0.90;;;16.70;89.60;;;;;;5090298;28;20251;-64
2023/04/01 10:32:09;;;;;;;1.40;1.30;;;16.70;89.70;;;;;;5072324;28;20699;-65
2023/04/01 10:35:41;;;;;;;1.38;1.27;;;16.70;89.80;;;;;;5090874;28;20342;-64
2023/04/01 10:39:09;;;;;;;1.63;1.53;;;16.70;89.80;;;;;;5090139;28;20191;-64
2023/04/01 10:42:36;;;;;;;1.70;1.60;;;16.70;89.50;;;;;;5089639;28;20219;-65
2023/04/01 10:45:51;;;;;;;2.08;1.83;;;16.70;89.80;;;;;;5090631;28;20203;-65
2023/04/01 10:49:06;;;;;;;2.83;1.65;;;16.70;90.10;;;;;;5090905;28;20583;-64
2023/04/01 10:52:25;;;;;;;2.83;2.60;;;16.70;90.30;;;;;;5090309;28;20234;-65
2023/04/01 10:55:38;;;;;;;3.83;2.80;;;16.70;90.10;;;;;;5073187;28;20255;-64
2023/04/01 10:58:56;;;;;;;9.50;2.47;;;16.70;90.10;;;;;;5090220;28;20196;-64
2023/04/01 11:02:11;;;;;;;1.98;1.88;;;16.70;90.10;;;;;;5091582;28;20223;-64
2023/04/01 11:05:45;;;;;;;1.83;1.70;;;16.70;89.90;;;;;;5094702;28;20698;-65
2023/04/01 11:09:11;;;;;;;1.48;1.38;;;16.70;89.90;;;;;;5094462;28;20200;-65
2023/04/01 11:12:34;;;;;;;2.08;1.90;;;16.70;90.00;;;;;;5093959;28;20708;-65
2023/04/01 11:16:11;;;;;;;2.78;2.17;;;16.70;90.00;;;;;;5094274;28;20299;-65
2023/04/01 11:19:29;;;;;;;2.47;2.28;;;16.70;89.90;;;;;;5093968;28;20203;-65
2023/04/01 11:22:42;;;;;;;2.20;2.00;;;16.70;89.80;;;;;;5095034;28;20258;-65
2023/04/01 11:25:47;;;;;;;1.83;1.67;;;16.70;89.60;;;;;;5093645;28;20241;-64
2023/04/01 11:29:15;;;;;;;2.38;2.17;;;16.70;89.70;;;;;;5093888;28;20283;-64
2023/04/01 11:32:13;;;;;;;2.22;2.03;;;16.70;89.70;;;;;;5072425;28;20220;-64
2023/04/01 11:35:21;;;;;;;2.00;1.80;;;16.70;89.60;;;;;;5094989;28;20684;-64
2023/04/01 11:38:20;;;;;;;1.80;1.70;;;16.70;89.70;;;;;;5094116;28;20700;-65
2023/04/01 11:41:23;;;;;;;2.63;2.42;;;16.70;89.70;;;;;;5094452;28;20322;-64
2023/04/01 11:44:17;;;;;;;3.45;2.70;;;16.70;89.80;;;;;;5093947;28;20325;-64
2023/04/01 11:47:23;;;;;;;3.03;2.83;;;16.70;89.50;;;;;;5095439;28;20317;-64
2023/04/01 11:50:28;;;;;;;2.83;2.33;;;16.70;89.30;;;;;;5098770;28;20275;-63
2023/04/01 11:53:24;;;;;;;3.43;2.43;;;16.70;88.90;;;;;;5093465;28;20199;-64
2023/04/01 11:56:25;;;;;;;2.30;2.10;;;16.80;89.10;;;;;;5093664;28;20239;-64
2023/04/01 11:59:48;;;;;;;2.00;1.90;;;16.80;89.10;;;;;;5074412;28;20246;-64
2023/04/01 12:02:49;;;;;;;1.90;1.80;;;16.80;89.10;;;;;;5089550;28;20654;-64
2023/04/01 12:05:48;;;;;;;2.55;2.30;;;16.80;89.30;;;;;;5085264;28;20220;-64
2023/04/01 12:08:47;;;;;;;3.33;3.03;;;16.80;88.60;;;;;;5072727;28;20240;-64
2023/04/01 12:11:45;;;;;;;2.88;2.67;;;16.80;88.70;;;;;;5072184;28;20899;-64
2023/04/01 12:14:43;;;;;;;2.53;2.33;;;16.80;88.80;;;;;;5072027;28;20201;-64
2023/04/01 12:17:41;;;;;;;2.60;2.40;;;16.80;88.80;;;;;;5072336;28;20281;-64
2023/04/01 12:20:42;;;;;;;2.28;2.17;;;16.90;96.30;;;;;;5071154;28;20695;-63
2023/04/01 12:24:20;;;;;;;2.63;2.42;;;16.80;88.90;;;;;;5071698;28;20291;-63
2023/04/01 12:27:25;;;;;;;2.70;2.50;;;16.70;88.60;;;;;;5072628;28;20239;-63
2023/04/01 12:30:35;;;;;;;2.42;2.22;;;16.70;94.40;;;;;;5076244;28;20246;-64
2023/04/01 12:33:48;;;;;;;3.10;2.90;;;16.70;88.70;;;;;;5074482;28;20211;-64
2023/04/01 12:36:54;;;;;;;2.67;2.28;;;16.70;88.70;;;;;;5071846;28;20359;-65
2023/04/01 12:40:06;;;;;;;2.90;2.70;;;16.70;88.30;;;;;;5071104;28;20231;-63
2023/04/01 12:43:06;;;;;;;2.90;2.70;;;16.70;88.30;;;;;;5071905;28;20243;-64
2023/04/01 12:46:03;;;;;;;2.25;2.15;;;16.70;88.10;;;;;;5072342;28;20279;-64
2023/04/01 12:49:15;;;;;;;3.17;2.93;;;16.70;87.80;;;;;;5070993;28;20693;-64
2023/04/01 12:52:12;;;;;;;2.58;2.30;;;16.70;87.90;;;;;;5071742;28;20217;-64
2023/04/01 12:55:28;;;;;;;3.53;3.23;;;16.70;87.90;;;;;;5070337;28;20640;-64
2023/04/01 12:58:39;;;;;;;2.65;2.55;;;16.70;87.90;;;;;;5086806;28;20271;-64
2023/04/01 13:01:36;;;;;;;3.13;2.93;;;16.70;88.10;;;;;;5092114;28;20580;-64
2023/04/01 13:05:17;;;;;;;2.78;2.58;;;16.60;87.80;;;;;;5091887;28;20253;-64
2023/04/01 13:08:23;;;;;;;3.42;3.15;;;16.70;87.80;;;;;;5065261;28;20333;-63
2023/04/01 13:11:20;;;;;;;3.20;3.00;;;16.60;87.50;;;;;;5092797;28;20301;-63
2023/04/01 13:14:29;;;;;;;4.00;3.70;;;16.60;87.20;;;;;;5091516;28;20222;-64
2023/04/01 13:17:24;;;;;;;3.10;2.90;;;16.60;87.10;;;;;;5092503;28;20381;-64
2023/04/01 13:20:21;;;;;;;3.80;3.47;;;16.80;92.90;;;;;;5091937;28;20196;-64
2023/04/01 13:23:21;;;;;;;3.10;2.90;;;16.60;87.00;;;;;;5091148;28;20283;-64
2023/04/01 13:26:19;;;;;;;3.43;3.20;;;16.60;86.70;;;;;;5091879;28;20274;-64
2023/04/01 13:29:15;;;;;;;3.20;3.00;;;16.60;86.70;;;;;;5092552;28;20239;-64
2023/04/01 13:32:20;;;;;;;3.60;3.30;;;16.60;86.80;;;;;;5092517;28;20252;-64
2023/04/01 13:35:33;;;;;;;3.45;3.25;;;16.60;86.80;;;;;;5092308;28;20203;-64
2023/04/01 13:38:42;;;;;;;2.95;2.75;;;16.50;86.60;;;;;;5094208;28;20665;-64
2023/04/01 13:41:47;;;;;;;3.27;2.97;;;16.60;86.60;;;;;;5092198;28;20340;-64
2023/04/01 13:44:40;;;;;;;3.10;2.90;;;16.60;86.80;;;;;;5091283;28;20227;-64
2023/04/01 13:47:50;;;;;;;3.10;2.90;;;16.50;86.90;;;;;;5092485;28;20677;-64
2023/04/01 13:50:54;;;;;;;3.30;3.05;;;16.50;86.80;;;;;;5091499;28;20215;-64
2023/04/01 13:54:01;;;;;;;3.20;3.00;;;16.50;86.60;;;;;;5091538;28;20237;-64
2023/04/01 13:56:59;;;;;;;3.57;3.27;;;16.50;86.40;;;;;;5090181;28;20215;-64
2023/04/01 14:00:14;;;;;;;3.10;2.90;;;16.50;86.20;;;;;;5090704;28;20196;-63
2023/04/01 14:03:25;;;;;;;3.80;3.37;;;16.50;86.00;;;;;;5091067;28;20200;-64
2023/04/01 14:06:21;;;;;;;3.45;3.25;;;16.50;85.70;;;;;;5090333;28;20664;-64
2023/04/01 14:09:39;;;;;;;3.20;3.00;;;16.50;85.70;;;;;;5091023;28;20203;-64
2023/04/01 14:12:34;;;;;;;3.47;3.27;;;16.40;85.70;;;;;;5090176;28;20622;-63
2023/04/01 14:15:39;;;;;;;3.30;3.10;;;16.50;86.00;;;;;;5090023;28;20284;-64
2023/04/01 14:18:59;;;;;;;3.63;3.33;;;16.50;85.90;;;;;;5090675;28;20752;-63
2023/04/01 14:21:56;;;;;;;3.53;3.22;;;16.40;85.60;;;;;;5090612;28;20212;-64
2023/04/01 14:24:59;;;;;;;3.70;3.40;;;16.40;85.50;;;;;;5090067;28;20736;-63
2023/04/01 14:27:55;;;;;;;3.38;3.17;;;16.50;85.60;;;;;;5090929;28;20771;-64
2023/04/01 14:31:13;;;;;;;3.47;3.20;;;16.40;85.50;;;;;;5089874;28;20224;-64
2023/04/01 14:34:12;;;;;;;3.60;3.30;;;16.40;85.40;;;;;;5090701;28;20204;-64
2023/04/01 14:37:23;;;;;;;3.63;3.33;;;16.40;85.50;;;;;;5093396;28;20247;-64
2023/04/01 14:40:25;;;;;;;3.37;3.07;;;16.40;92.10;;;;;;5094730;28;20242;-64
2023/04/01 14:43:32;;;;;;;3.90;3.60;;;16.40;85.30;;;;;;5093404;28;20234;-64
2023/04/01 14:46:49;;;;;;;3.28;3.08;;;16.40;85.30;;;;;;5094264;28;20219;-63
2023/04/01 14:49:40;;;;;;;2.60;2.50;;;16.40;85.30;;;;;;5093882;28;20282;-64
2023/04/01 14:52:33;;;;;;;2.95;2.72;;;16.40;85.10;;;;;;5102613;28;20219;-64
2023/04/01 14:55:33;;;;;;;3.23;3.03;;;16.40;85.20;;;;;;5100022;28;20258;-64
2023/04/01 14:58:25;;;;;;;3.07;2.87;;;16.40;85.30;;;;;;5096210;28;20203;-64
2023/04/01 15:01:31;;;;;;;2.65;2.55;;;16.40;85.20;;;;;;5095875;28;20236;-64
2023/04/01 15:04:50;;;;;;;2.90;2.70;;;16.30;85.00;;;;;;5094777;28;20196;-63
2023/04/01 15:08:05;;;;;;;2.60;2.40;;;16.40;85.10;;;;;;5094380;28;20278;-64
2023/04/01 15:11:26;;;;;;;2.27;2.07;;;16.40;84.80;;;;;;5094191;28;20216;-64
2023/04/01 15:14:27;;;;;;;3.17;2.87;;;16.30;84.70;;;;;;5095848;28;20192;-64
2023/04/01 15:17:28;;;;;;;2.90;2.70;;;16.40;84.80;;;;;;5094293;28;20767;-64
2023/04/01 15:20:37;;;;;;;2.63;2.43;;;16.30;91.70;;;;;;5094829;28;20671;-64
2023/04/01 15:23:37;;;;;;;2.40;2.30;;;16.30;84.40;;;;;;5094046;28;20246;-64
2023/04/01 15:26:48;;;;;;;2.37;2.27;;;16.30;84.50;;;;;;5094524;28;20619;-63
2023/04/01 15:29:52;;;;;;;4.97;3.50;;;16.30;84.10;;;;;;5094951;28;20237;-64
2023/04/01 15:32:52;;;;;;;3.83;3.60;;;16.30;84.10;;;;;;5093337;28;20192;-64
2023/04/01 15:35:47;;;;;;;3.80;3.50;;;16.30;84.10;;;;;;5095113;28;20200;-64